Flight Track Log - Related Links

Times and Time Zones

All times are in EDT time to prevent confusion due to time zone crossing. See the OPT429 flight status page for this flight to view local times or setup timezone preferences in your user account.

Time Position Orientation Groundspeed Altitude Reporting Facility
EDT Latitude Longitude Course Direction KTS MPH feet Rate Location/Type
Tue 09:24:25 AM 35.0458 -118.1125 100° East 413 475 17,500  Level Los Angeles Center
Tue 09:25:00 AM 35.1100 -117.7850 98° East  Level FlightAware Approximate
Tue 09:25:26 AM 35.0389 -117.9756 94° East 408 470 17,500  Level Los Angeles Center
Tue 09:26:00 AM 35.0947 -117.6833 100° East  Level FlightAware Approximate
Tue 09:26:27 AM 35.0308 -117.8122 93° East 403 464 17,600  Level Los Angeles Center
Tue 09:27:28 AM 35.0233 -117.6736 94° East 412 474 17,500  Descending Los Angeles Center
Tue 09:28:30 AM 35.0156 -117.5383 94° East 419 482 17,600 -49 Climbing Los Angeles Center
Tue 09:29:31 AM 35.0089 -117.4006 93° East 419 482 17,400 -98 Descending Los Angeles Center
Tue 09:30:32 AM 35.0014 -117.2647 94° East 407 468 17,400  Level Los Angeles Center
Tue 09:31:33 AM 34.9942 -117.1267 94° East 407 468 17,400  Level Los Angeles Center
Tue 09:32:34 AM 34.9844 -116.9644 94° East 406 467 17,400  Level Los Angeles Center
Tue 09:33:35 AM 34.9781 -116.8272 93° East 405 466 17,400 49 Level Los Angeles Center
Tue 09:34:36 AM 34.9689 -116.6897 95° East 405 466 17,500 49 Climbing Los Angeles Center
Tue 09:35:37 AM 34.9847 -116.5606 81° East 395 455 17,500 -49 Level Los Angeles Center
Tue 09:36:39 AM 35.0494 -116.4464 55° Northeast 384 442 17,400 -488 Descending Los Angeles Center
Tue 09:37:40 AM 35.1072 -116.3561 52° Northeast 352 405 16,500 -1,279 Descending Los Angeles Center
Tue 09:38:41 AM 35.1683 -116.2625 51° Northeast 334 384 14,800 -1,707 Descending Los Angeles Center
Tue 09:39:43 AM 35.2192 -116.1839 52° Northeast 331 381 13,000 -1,854 Descending Los Angeles Center
Tue 09:40:44 AM 35.2756 -116.0986 51° Northeast 331 381 11,000 -1,180 Descending Los Angeles Center
Tue 09:41:45 AM 35.3381 -115.9994 52° Northeast 317 365 10,600 -244 Descending Los Angeles Center
Tue 09:42:47 AM 35.3944 -115.9122 52° Northeast 324 373 10,500 -49 Descending Los Angeles Center
Tue 09:43:48 AM 35.4500 -115.8256 52° Northeast 322 371 10,500  Level Los Angeles Center
Tue 09:44:49 AM 35.5039 -115.7397 52° Northeast 322 371 10,500 -71 Level Los Angeles Center
Tue 09:45:13 AM 35.5300 -115.7086 44° Northeast 317 365 10,400 -968 Descending Los Angeles Center
Tue 09:45:51 AM 35.5592 -115.6564 56° Northeast 321 369 9,500 -1,672 Descending Los Angeles Center
Tue 09:46:14 AM 35.5897 -115.6156 47° Northeast 322 371 8,700 -984 Descending Los Angeles Center
Tue 09:46:52 AM 35.6150 -115.5700 56° Northeast 321 369 8,500 -200 Descending Los Angeles Center
Tue 09:47:14 AM 35.6447 -115.5292 48° Northeast 325 374 8,500  Level Los Angeles Center
Tue 09:47:54 AM 35.6686 -115.4850 56° Northeast 321 369 8,500 -98 Level Los Angeles Center
Tue 09:48:15 AM 35.6944 -115.4494 48° Northeast 277 319 8,400 -885 Descending Los Angeles Center
Tue 09:48:55 AM 35.7239 -115.3975 55° Northeast 294 338 7,600 -1,279 Descending Los Angeles Center
Tue 09:49:16 AM 35.7367 -115.3750 55° Northeast 251 289 7,100 -682 Descending Los Angeles Center
Tue 09:50:23 AM 35.6933 -115.3256 137° Southeast 220 253 6,600 -294 Descending Los Angeles Center
Tue 09:50:58 AM 35.6578 -115.3136 165° South 235 270 6,600  Level Los Angeles Center
Tue 09:51:24 AM 35.6300 -115.3011 160° South 226 260 6,600  Level Los Angeles Center
Tue 09:51:59 AM 35.6008 -115.2944 169° South 235 270 6,600 78 Level Los Angeles Center
Tue 10:41:11 AM 36.0050 -115.7014 128° Southeast 215 247 10,500 78 Climbing Los Angeles Center
Tue 10:42:12 AM 35.9883 -115.6325 107° East 239 275 10,500  Level Los Angeles Center
Tue 10:43:07 AM 35.9764 -115.5464 100° East 288 331 10,500  Level Los Angeles Center
Tue 10:44:01 AM 35.9606 -115.4531 102° East 302 348 10,500  Level Los Angeles Center
Tue 10:45:02 AM 35.9458 -115.3544 100° East 291 335 10,500  Level Los Angeles Center
Tue 10:46:09 AM 35.9303 -115.2428 100° East 290 334 10,500  Level Los Angeles Center
Tue 10:47:04 AM 35.9189 -115.1508 99° East 296 341 10,500  Level Los Angeles Center
Tue 10:48:05 AM 35.9039 -115.0522 101° East 295 339 10,500  Level Los Angeles Center
Tue 10:49:11 AM 35.8867 -114.9439 101° East 296 341 10,500 -157 Level Los Angeles Center
Tue 10:50:00 AM 35.9108 -114.8772 66° East 236 272 10,200 -1,364 Descending Los Angeles Center
Tue 10:51:01 AM 35.9642 -114.8250 38° Northeast 258 297 8,000 -2,262 Descending Los Angeles Center
Tue 10:52:02 AM 36.0231 -114.7786 32° Northeast 256 295 5,600 -1,453 Descending Los Angeles Center
Tue 10:53:09 AM 36.0786 -114.7256 38° Northeast 205 236 4,900 -331 Descending Los Angeles Center
Tue 10:54:09 AM 36.1281 -114.6956 26° Northeast 202 232 4,900 -417 Level Los Angeles Center
Tue 10:55:04 AM 36.1603 -114.7433 310° West 216 249 4,100 -934 Descending Los Angeles Center
Tue 10:56:11 AM 36.1261 -114.8136 239° Southwest 233 268 3,000 -985 Descending Los Angeles Center

Login

Don't have an account? Register now (free) for customized features, flight alerts, and more!